Time;durP1;ratioP1;P1;durP2;ratioP2;P2;SDS_P1;SDS_P2;PMS_P1;PMS_P2;Temp;Humidity;BMP_temperature;BMP_pressure;BME280_temperature;BME280_humidity;BME280_pressure;Samples;Min_cycle;Max_cycle;Signal;HPM_P1;HPM_P2
2022/02/19 00:00:11;;;;;;;13.57;3.03;;;20.80;99.90;;;;;;5021080;28;20485;-62
2022/02/19 00:02:39;;;;;;;13.82;2.90;;;20.80;99.90;;;;;;5014317;28;20535;-62
2022/02/19 00:05:07;;;;;;;21.15;3.55;;;20.80;99.90;;;;;;5031823;28;20111;-62
2022/02/19 00:07:35;;;;;;;17.65;3.08;;;20.80;99.90;;;;;;5032367;28;20053;-62
2022/02/19 00:10:03;;;;;;;17.88;3.90;;;20.80;99.90;;;;;;5032177;28;20028;-62
2022/02/19 00:12:31;;;;;;;23.23;3.65;;;20.80;99.90;;;;;;5031978;28;20033;-62
2022/02/19 00:14:58;;;;;;;15.25;2.83;;;20.70;99.90;;;;;;5013678;28;20543;-62
2022/02/19 00:17:25;;;;;;;17.63;3.63;;;20.70;99.90;;;;;;5014528;28;20060;-62
2022/02/19 00:19:55;;;;;;;23.33;3.90;;;20.60;99.90;;;;;;5034594;28;20022;-62
2022/02/19 00:22:23;;;;;;;17.23;3.53;;;20.70;99.90;;;;;;5035974;28;20037;-62
2022/02/19 00:24:50;;;;;;;16.42;3.08;;;20.60;99.90;;;;;;5036254;28;20048;-62
2022/02/19 00:27:17;;;;;;;16.70;3.47;;;20.60;99.90;;;;;;5034042;28;20022;-62
2022/02/19 00:29:45;;;;;;;20.38;3.28;;;20.60;99.90;;;;;;5035041;28;20074;-62
2022/02/19 00:32:12;;;;;;;18.08;3.67;;;20.60;99.90;;;;;;5034506;28;20037;-62
2022/02/19 00:34:40;;;;;;;15.02;2.97;;;20.60;99.90;;;;;;5020186;28;20021;-63
2022/02/19 00:37:07;;;;;;;25.48;4.53;;;20.60;99.90;;;;;;5035350;28;20028;-63
2022/02/19 00:39:34;;;;;;;13.63;3.50;;;20.60;99.90;;;;;;5034607;28;20484;-62
2022/02/19 00:42:02;;;;;;;23.80;4.25;;;20.60;99.90;;;;;;5029742;28;20509;-62
2022/02/19 00:44:31;;;;;;;15.18;2.72;;;20.60;99.90;;;;;;5035310;28;20497;-63
2022/02/19 00:46:59;;;;;;;15.20;2.92;;;20.70;99.90;;;;;;5035084;28;20057;-62
2022/02/19 00:49:27;;;;;;;18.70;4.13;;;20.70;99.90;;;;;;5046193;28;20397;-62
2022/02/19 00:51:55;;;;;;;15.52;4.18;;;20.70;99.90;;;;;;5045224;28;20036;-62
2022/02/19 00:54:22;;;;;;;11.55;2.90;;;20.70;99.90;;;;;;5015501;28;20053;-62
2022/02/19 00:56:49;;;;;;;16.02;3.20;;;20.70;99.90;;;;;;5034331;28;20114;-62
2022/02/19 00:59:17;;;;;;;15.10;3.42;;;20.70;99.90;;;;;;5035307;28;20026;-62
2022/02/19 01:01:44;;;;;;;13.57;3.38;;;20.80;99.90;;;;;;5051675;28;20055;-63
2022/02/19 01:04:11;;;;;;;17.73;3.33;;;20.70;99.90;;;;;;5055165;28;20484;-62
2022/02/19 01:06:39;;;;;;;16.45;2.90;;;20.80;99.90;;;;;;5025003;28;20048;-63
2022/02/19 01:09:06;;;;;;;12.35;3.47;;;20.80;99.90;;;;;;5015815;28;20498;-62
2022/02/19 01:11:39;;;;;;;16.73;3.60;;;20.80;99.90;;;;;;5014595;28;20036;-62
2022/02/19 01:14:10;;;;;;;16.25;2.80;;;20.80;99.90;;;;;;5034671;28;20108;-62
2022/02/19 01:16:37;;;;;;;19.58;3.58;;;20.90;99.90;;;;;;5036076;28;20037;-62
2022/02/19 01:19:04;;;;;;;11.45;2.70;;;21.00;99.90;;;;;;5034909;28;20651;-62
2022/02/19 01:21:32;;;;;;;13.98;2.78;;;21.00;99.90;;;;;;5035204;28;20444;-62
2022/02/19 01:24:00;;;;;;;16.80;3.10;;;21.10;99.90;;;;;;5024942;28;20076;-62
2022/02/19 01:26:28;;;;;;;14.25;3.10;;;21.10;99.90;;;;;;5016971;28;20033;-62
2022/02/19 01:28:55;;;;;;;13.35;3.05;;;21.10;99.90;;;;;;5017017;28;20036;-62
2022/02/19 01:31:24;;;;;;;18.00;3.38;;;21.10;99.90;;;;;;5021735;28;20417;-63
2022/02/19 01:33:52;;;;;;;16.33;2.63;;;21.10;99.90;;;;;;4998062;28;20036;-63
2022/02/19 01:36:19;;;;;;;15.10;2.92;;;21.10;99.90;;;;;;5030065;28;20030;-63
2022/02/19 01:38:47;;;;;;;17.25;3.15;;;21.00;99.90;;;;;;5034452;28;20067;-63
2022/02/19 01:41:14;;;;;;;17.65;3.30;;;21.00;99.90;;;;;;5023608;28;20030;-63
2022/02/19 01:43:41;;;;;;;16.23;2.90;;;21.00;99.90;;;;;;5017089;28;20032;-63
2022/02/19 01:46:08;;;;;;;13.98;2.70;;;21.10;99.90;;;;;;5033290;28;20104;-63
2022/02/19 01:48:36;;;;;;;15.05;2.40;;;21.10;99.90;;;;;;5024365;28;20022;-63
2022/02/19 01:51:03;;;;;;;14.77;3.53;;;21.10;99.90;;;;;;5021266;28;20037;-63
2022/02/19 01:53:32;;;;;;;16.73;2.92;;;21.10;99.90;;;;;;5014353;28;20018;-63
2022/02/19 01:55:59;;;;;;;13.00;2.53;;;21.10;99.90;;;;;;5033031;28;20017;-63
2022/02/19 01:58:27;;;;;;;14.35;2.85;;;21.30;99.90;;;;;;5034552;28;20383;-63
2022/02/19 02:00:54;;;;;;;18.08;3.20;;;21.40;99.90;;;;;;5034353;28;20040;-63
2022/02/19 02:03:21;;;;;;;17.63;3.35;;;21.60;99.90;;;;;;5034293;28;20055;-63
2022/02/19 02:05:49;;;;;;;14.98;3.45;;;21.60;99.90;;;;;;5042536;28;20061;-63
2022/02/19 02:08:16;;;;;;;14.60;3.25;;;21.70;99.90;;;;;;5054197;28;20032;-63
2022/02/19 02:10:44;;;;;;;14.98;2.65;;;21.80;99.90;;;;;;5036373;28;20032;-63
2022/02/19 02:13:11;;;;;;;16.45;3.65;;;21.80;99.90;;;;;;4996799;28;20018;-63
2022/02/19 02:15:39;;;;;;;12.15;2.78;;;21.80;99.90;;;;;;5022227;28;20030;-63
2022/02/19 02:18:06;;;;;;;13.05;2.63;;;21.80;99.90;;;;;;5034858;28;20477;-63
2022/02/19 02:20:34;;;;;;;19.15;3.33;;;21.90;99.90;;;;;;5031456;28;20037;-63
2022/02/19 02:23:02;;;;;;;14.48;3.30;;;21.90;99.90;;;;;;5015762;28;20505;-63
2022/02/19 02:25:31;;;;;;;12.65;3.13;;;22.00;99.90;;;;;;5022340;28;20042;-63
2022/02/19 02:27:59;;;;;;;15.45;2.47;;;21.90;99.90;;;;;;5016920;28;20049;-63
2022/02/19 02:30:27;;;;;;;18.25;2.97;;;21.90;99.90;;;;;;5034218;28;20524;-63
2022/02/19 02:32:54;;;;;;;19.80;2.67;;;22.00;99.90;;;;;;5033754;28;20079;-63
2022/02/19 02:35:21;;;;;;;13.02;2.67;;;22.00;99.90;;;;;;5038545;28;20386;-63
2022/02/19 02:37:48;;;;;;;15.15;3.60;;;22.10;99.90;;;;;;5035800;28;20517;-63
2022/02/19 02:40:16;;;;;;;14.75;2.45;;;22.20;99.90;;;;;;5035608;28;20049;-63
2022/02/19 02:42:43;;;;;;;14.43;3.38;;;22.40;99.90;;;;;;5025095;28;20088;-63
2022/02/19 02:45:10;;;;;;;15.68;2.67;;;22.50;99.90;;;;;;4997238;28;20030;-63
2022/02/19 02:47:41;;;;;;;14.40;2.65;;;22.40;99.90;;;;;;5013594;28;20096;-64
2022/02/19 02:50:09;;;;;;;14.15;2.25;;;22.50;99.90;;;;;;5027140;28;20100;-62
2022/02/19 02:52:37;;;;;;;15.60;2.70;;;22.60;99.90;;;;;;5033259;28;20029;-62
2022/02/19 02:55:07;;;;;;;14.52;2.47;;;22.80;99.90;;;;;;5032987;28;20042;-62
2022/02/19 02:57:36;;;;;;;15.32;3.33;;;22.70;99.90;;;;;;5024375;28;20385;-64
2022/02/19 03:00:06;;;;;;;12.45;2.63;;;22.90;99.90;;;;;;5043862;28;20073;-62
2022/02/19 03:02:34;;;;;;;14.27;2.47;;;23.00;99.90;;;;;;5026129;28;20060;-62
2022/02/19 03:05:03;;;;;;;16.20;2.75;;;23.00;99.90;;;;;;5020438;28;20054;-62
2022/02/19 03:07:30;;;;;;;13.00;2.65;;;23.00;99.90;;;;;;5027485;28;20473;-62
2022/02/19 03:09:58;;;;;;;12.88;1.92;;;22.90;99.90;;;;;;5034690;28;20109;-62
2022/02/19 03:12:26;;;;;;;16.70;2.63;;;22.80;99.90;;;;;;5053034;28;20086;-62
2022/02/19 03:14:53;;;;;;;16.23;2.75;;;22.80;99.90;;;;;;5045488;28;20469;-62
2022/02/19 03:17:21;;;;;;;15.45;3.13;;;22.90;99.90;;;;;;4996278;28;20032;-63
2022/02/19 03:19:48;;;;;;;15.98;2.45;;;22.90;99.90;;;;;;5025980;28;20029;-63
2022/02/19 03:22:16;;;;;;;11.00;2.55;;;22.90;99.90;;;;;;5022069;28;20116;-62
2022/02/19 03:24:43;;;;;;;14.48;2.55;;;22.80;99.90;;;;;;5013177;28;20111;-62
2022/02/19 03:27:10;;;;;;;11.40;2.05;;;23.10;99.90;;;;;;5021457;28;20547;-62
2022/02/19 03:29:38;;;;;;;15.98;2.75;;;23.00;99.90;;;;;;5051866;28;20013;-62
2022/02/19 03:32:06;;;;;;;10.98;2.67;;;23.20;99.90;;;;;;5033426;28;20025;-62
2022/02/19 03:34:33;;;;;;;10.70;1.63;;;23.30;99.90;;;;;;5015323;28;20132;-62
2022/02/19 03:37:01;;;;;;;14.55;1.98;;;23.30;99.90;;;;;;5031617;28;20044;-62
2022/02/19 03:39:28;;;;;;;12.30;2.22;;;23.30;99.90;;;;;;5014655;28;20025;-62
2022/02/19 03:41:55;;;;;;;14.48;2.70;;;23.40;99.90;;;;;;5032600;28;20470;-62
2022/02/19 03:44:23;;;;;;;14.50;2.13;;;23.20;99.90;;;;;;5032586;28;20028;-63
2022/02/19 03:46:50;;;;;;;15.55;2.60;;;23.10;99.90;;;;;;5030741;28;20036;-63
2022/02/19 03:49:17;;;;;;;14.82;2.95;;;23.00;99.90;;;;;;5032524;28;20108;-63
2022/02/19 03:51:44;;;;;;;13.10;3.00;;;22.70;99.90;;;;;;5032456;28;20018;-63
2022/02/19 03:54:11;;;;;;;13.80;3.47;;;22.60;99.90;;;;;;5039035;28;20425;-63
2022/02/19 03:56:39;;;;;;;13.55;3.03;;;22.60;99.90;;;;;;5028940;28;20034;-64
2022/02/19 03:59:06;;;;;;;11.77;2.47;;;22.40;99.90;;;;;;5016930;28;20022;-63
2022/02/19 04:01:34;;;;;;;10.68;2.40;;;22.10;99.90;;;;;;5017886;28;20434;-64
2022/02/19 04:04:01;;;;;;;14.95;2.85;;;21.90;99.90;;;;;;5032434;28;20025;-63
2022/02/19 04:06:28;;;;;;;18.58;3.22;;;21.80;99.90;;;;;;5036831;28;20460;-63
2022/02/19 04:08:55;;;;;;;15.35;2.78;;;21.60;99.90;;;;;;5036451;28;20482;-63
2022/02/19 04:11:23;;;;;;;9.85;1.98;;;21.50;99.90;;;;;;5021983;28;20037;-62
2022/02/19 04:13:50;;;;;;;11.90;3.30;;;21.30;99.90;;;;;;5042170;28;20489;-62
2022/02/19 04:16:17;;;;;;;13.57;3.65;;;21.30;99.90;;;;;;5019592;28;20030;-63
2022/02/19 04:18:44;;;;;;;14.48;2.80;;;21.30;99.90;;;;;;5016609;28;20029;-62
2022/02/19 04:21:12;;;;;;;9.93;2.38;;;21.40;99.90;;;;;;5017223;28;20045;-62
2022/02/19 04:23:39;;;;;;;16.50;2.50;;;21.40;99.90;;;;;;5016528;28;20034;-63
2022/02/19 04:26:06;;;;;;;12.48;3.13;;;21.50;99.90;;;;;;5028830;28;20026;-63
2022/02/19 04:28:34;;;;;;;17.85;3.78;;;21.60;99.90;;;;;;5036072;28;20022;-63
2022/02/19 04:31:01;;;;;;;12.23;2.35;;;21.60;99.90;;;;;;5035045;28;20489;-63
2022/02/19 04:33:28;;;;;;;13.18;2.80;;;21.70;99.90;;;;;;5036063;28;20026;-62
2022/02/19 04:35:55;;;;;;;13.35;2.15;;;21.60;99.90;;;;;;5036291;28;20029;-63
2022/02/19 04:38:24;;;;;;;17.13;3.05;;;21.60;99.90;;;;;;5022008;28;20029;-63
2022/02/19 04:40:52;;;;;;;9.40;2.50;;;21.70;99.90;;;;;;5030664;28;20056;-63
2022/02/19 04:43:19;;;;;;;14.43;2.60;;;21.70;99.90;;;;;;5035304;28;20155;-63
2022/02/19 04:45:47;;;;;;;11.48;2.45;;;21.70;99.90;;;;;;5018375;28;20025;-63
2022/02/19 04:48:14;;;;;;;13.35;2.50;;;21.80;99.90;;;;;;5035061;28;20099;-63
2022/02/19 04:50:41;;;;;;;15.93;2.58;;;21.90;99.90;;;;;;5042905;28;20022;-63
2022/02/19 04:53:09;;;;;;;14.45;2.85;;;22.00;99.90;;;;;;5035544;28;20025;-63
2022/02/19 04:55:36;;;;;;;13.95;2.22;;;22.00;99.90;;;;;;5024583;28;20037;-63
2022/02/19 04:58:04;;;;;;;11.75;2.05;;;21.90;99.90;;;;;;5055514;28;20024;-63
2022/02/19 05:00:32;;;;;;;11.27;2.40;;;22.00;99.90;;;;;;5048497;28;20504;-63
2022/02/19 05:02:59;;;;;;;14.27;2.50;;;22.00;99.90;;;;;;5035246;28;20029;-63
2022/02/19 05:05:26;;;;;;;16.00;3.13;;;22.00;99.90;;;;;;5027243;28;20088;-63
2022/02/19 05:07:54;;;;;;;10.88;2.20;;;22.00;99.90;;;;;;5035301;28;20550;-63
2022/02/19 05:10:21;;;;;;;16.02;2.70;;;22.10;99.90;;;;;;5032006;28;20120;-63
2022/02/19 05:12:50;;;;;;;17.75;2.65;;;22.10;99.90;;;;;;5055121;28;20021;-63
2022/02/19 05:15:18;;;;;;;18.83;3.22;;;22.00;99.90;;;;;;5049926;28;20100;-63
2022/02/19 05:17:50;;;;;;;12.60;1.95;;;22.10;99.90;;;;;;5035362;28;20078;-63
2022/02/19 05:20:24;;;;;;;16.70;2.60;;;22.10;99.90;;;;;;5035321;28;20117;-63
2022/02/19 05:22:52;;;;;;;12.73;2.55;;;22.10;99.90;;;;;;5034871;28;20033;-63
2022/02/19 05:25:19;;;;;;;14.60;2.20;;;22.10;99.90;;;;;;5035456;28;20029;-63
2022/02/19 05:27:46;;;;;;;17.25;3.58;;;22.10;99.90;;;;;;5035056;28;20446;-63
2022/02/19 05:30:14;;;;;;;15.40;3.35;;;22.10;99.90;;;;;;5034490;28;20369;-63
2022/02/19 05:32:41;;;;;;;12.75;2.25;;;22.10;99.90;;;;;;5017302;28;20071;-63
2022/02/19 05:35:09;;;;;;;15.85;2.67;;;22.00;99.90;;;;;;5035634;28;20112;-63
2022/02/19 05:37:36;;;;;;;10.50;1.98;;;22.10;99.90;;;;;;5034138;28;20086;-63
2022/02/19 05:40:05;;;;;;;19.02;2.67;;;22.00;99.90;;;;;;5032464;28;20055;-63
2022/02/19 05:42:32;;;;;;;13.95;2.17;;;21.90;99.90;;;;;;5033865;28;20033;-62
2022/02/19 05:45:00;;;;;;;16.40;2.47;;;21.90;99.90;;;;;;5040429;28;20041;-63
2022/02/19 05:47:27;;;;;;;13.95;2.65;;;21.90;99.90;;;;;;5034500;28;20024;-63
2022/02/19 05:49:54;;;;;;;10.63;2.13;;;21.90;99.90;;;;;;5035043;28;20104;-63
2022/02/19 05:52:22;;;;;;;16.92;3.72;;;21.90;99.90;;;;;;5033997;28;20053;-63
2022/02/19 05:54:53;;;;;;;14.65;2.80;;;21.90;99.90;;;;;;5034072;28;20505;-63
2022/02/19 05:57:23;;;;;;;14.57;3.40;;;21.90;99.90;;;;;;5033688;28;20033;-63
2022/02/19 05:59:51;;;;;;;13.38;2.58;;;21.90;99.90;;;;;;5003361;28;20144;-63
2022/02/19 06:02:19;;;;;;;13.23;2.92;;;21.90;99.90;;;;;;5034353;28;20095;-63
2022/02/19 06:04:46;;;;;;;15.98;2.58;;;21.90;99.90;;;;;;5019615;28;20030;-63
2022/02/19 06:07:13;;;;;;;15.27;2.97;;;21.80;99.90;;;;;;5033961;28;20080;-63
2022/02/19 06:09:41;;;;;;;21.77;3.15;;;21.80;99.90;;;;;;5023287;28;20034;-63
2022/02/19 06:12:08;;;;;;;13.07;2.88;;;21.80;99.90;;;;;;5012095;28;20032;-62
2022/02/19 06:14:36;;;;;;;16.63;2.83;;;21.80;99.90;;;;;;5018063;28;20038;-63
2022/02/19 06:17:03;;;;;;;15.05;2.70;;;21.80;99.90;;;;;;5029955;28;20051;-62
2022/02/19 06:19:30;;;;;;;13.90;2.75;;;21.80;99.90;;;;;;5033825;28;20029;-63
2022/02/19 06:21:58;;;;;;;17.75;3.80;;;21.80;99.90;;;;;;5034608;28;20036;-63
2022/02/19 06:24:25;;;;;;;15.57;2.65;;;21.80;99.90;;;;;;5034437;28;20374;-63
2022/02/19 06:26:52;;;;;;;13.07;2.85;;;21.70;99.90;;;;;;5045467;28;20493;-63
2022/02/19 06:29:19;;;;;;;15.52;2.75;;;21.80;99.90;;;;;;5002151;28;20029;-63
2022/02/19 06:31:47;;;;;;;18.60;4.28;;;21.80;99.90;;;;;;5031460;28;20022;-63
2022/02/19 06:34:14;;;;;;;14.57;2.72;;;21.80;99.90;;;;;;5013917;28;20034;-63
2022/02/19 06:36:41;;;;;;;12.15;1.75;;;21.90;99.90;;;;;;5030165;28;20053;-63
2022/02/19 06:39:08;;;;;;;11.73;2.35;;;21.90;99.90;;;;;;5032715;28;20478;-63
2022/02/19 06:41:36;;;;;;;19.48;2.70;;;21.90;99.90;;;;;;5001043;28;20029;-63
2022/02/19 06:44:03;;;;;;;16.73;2.10;;;21.90;99.90;;;;;;5013764;28;20367;-63
2022/02/19 06:46:30;;;;;;;11.32;1.88;;;22.00;99.90;;;;;;5043890;28;20025;-63
2022/02/19 06:48:58;;;;;;;10.40;2.05;;;21.90;99.90;;;;;;5053432;28;20079;-62
2022/02/19 06:51:28;;;;;;;15.65;2.58;;;21.90;99.90;;;;;;5051568;28;20459;-62
2022/02/19 06:53:56;;;;;;;14.02;1.95;;;21.90;99.90;;;;;;5016068;28;20566;-63
2022/02/19 06:56:30;;;;;;;11.57;2.60;;;21.90;99.90;;;;;;5009951;28;20022;-63
2022/02/19 06:59:00;;;;;;;17.30;3.28;;;22.00;99.90;;;;;;5013342;28;20030;-63
2022/02/19 07:01:28;;;;;;;14.45;3.35;;;22.00;99.90;;;;;;5042413;28;20032;-63
2022/02/19 07:03:58;;;;;;;10.13;2.08;;;22.00;99.90;;;;;;5052954;28;20431;-63
2022/02/19 07:06:26;;;;;;;16.02;3.28;;;22.00;99.90;;;;;;5038031;28;20046;-63
2022/02/19 07:08:53;;;;;;;16.02;2.80;;;22.00;99.90;;;;;;5031751;28;20097;-63
2022/02/19 07:11:21;;;;;;;15.63;3.25;;;22.10;99.90;;;;;;5018691;28;20394;-63
2022/02/19 07:13:48;;;;;;;13.43;2.75;;;22.00;99.90;;;;;;5013215;28;20030;-63
2022/02/19 07:16:15;;;;;;;10.45;2.13;;;22.00;99.90;;;;;;5038708;28;20052;-63
2022/02/19 07:18:42;;;;;;;11.80;2.15;;;22.00;99.90;;;;;;5032804;28;20032;-62
2022/02/19 07:21:10;;;;;;;11.95;2.80;;;22.00;99.90;;;;;;5020118;28;20385;-63
2022/02/19 07:23:37;;;;;;;15.80;3.28;;;22.00;99.90;;;;;;5013151;28;20110;-63
2022/02/19 07:26:04;;;;;;;27.58;3.30;;;21.90;99.90;;;;;;5024599;28;20029;-63
2022/02/19 07:28:31;;;;;;;12.63;2.50;;;22.00;99.90;;;;;;5019867;28;20378;-63
2022/02/19 07:30:59;;;;;;;16.23;2.55;;;22.00;99.90;;;;;;5038409;28;20017;-63
2022/02/19 07:33:26;;;;;;;9.95;2.08;;;21.90;99.90;;;;;;5034587;28;20033;-63
2022/02/19 07:35:53;;;;;;;11.60;2.22;;;21.90;99.90;;;;;;5042477;28;20025;-63
2022/02/19 07:38:21;;;;;;;10.20;2.72;;;21.90;99.90;;;;;;5046096;28;20505;-63
2022/02/19 07:40:49;;;;;;;13.05;2.80;;;21.90;99.90;;;;;;5037509;28;20026;-63
2022/02/19 07:43:16;;;;;;;12.98;2.47;;;21.90;99.90;;;;;;5014045;28;20041;-63
2022/02/19 07:45:44;;;;;;;17.13;3.28;;;21.90;99.90;;;;;;5020730;28;20029;-63
2022/02/19 07:48:13;;;;;;;19.30;3.28;;;21.90;99.90;;;;;;5028220;28;20039;-63
2022/02/19 07:58:56;;;;;;;9.75;1.88;;;21.80;99.90;;;;;;5017888;28;20453;-63
2022/02/19 08:01:23;;;;;;;14.20;2.55;;;21.80;99.90;;;;;;5032601;28;20466;-63
2022/02/19 08:03:51;;;;;;;9.00;2.30;;;21.80;99.90;;;;;;5029605;28;20025;-63
2022/02/19 08:06:18;;;;;;;8.50;1.95;;;21.80;99.90;;;;;;5025782;28;20029;-63
2022/02/19 08:08:45;;;;;;;10.57;2.40;;;21.80;99.90;;;;;;5032422;28;20117;-63
2022/02/19 08:11:14;;;;;;;17.90;2.88;;;21.80;99.90;;;;;;5032412;28;20034;-63
2022/02/19 08:13:41;;;;;;;10.77;2.15;;;21.80;99.90;;;;;;5014488;28;20067;-63
2022/02/19 08:16:09;;;;;;;14.00;2.95;;;21.80;99.90;;;;;;5043552;28;20503;-63
2022/02/19 08:18:38;;;;;;;12.02;2.33;;;21.80;99.90;;;;;;5035829;28;20021;-63
2022/02/19 08:21:06;;;;;;;8.48;2.10;;;21.80;99.90;;;;;;5032704;28;20026;-63
2022/02/19 08:23:33;;;;;;;14.50;2.13;;;21.80;99.90;;;;;;5039508;28;20398;-63
2022/02/19 08:26:01;;;;;;;13.80;3.45;;;21.80;99.90;;;;;;5024855;28;20393;-63
2022/02/19 08:28:28;;;;;;;18.00;2.28;;;21.80;99.90;;;;;;5032773;28;20038;-63
2022/02/19 08:30:55;;;;;;;13.18;2.22;;;21.70;99.90;;;;;;5032331;28;20362;-63
2022/02/19 08:33:22;;;;;;;12.75;2.47;;;21.70;99.90;;;;;;5014561;28;20022;-63
2022/02/19 08:35:50;;;;;;;15.27;2.70;;;21.80;99.90;;;;;;5039928;28;20108;-63
2022/02/19 08:38:18;;;;;;;11.32;2.38;;;21.80;99.90;;;;;;5036918;28;20056;-63
2022/02/19 08:40:46;;;;;;;11.00;2.47;;;21.80;99.90;;;;;;5029590;28;20034;-63
2022/02/19 08:43:13;;;;;;;9.38;3.00;;;21.80;99.90;;;;;;5015804;28;20105;-63
2022/02/19 08:45:41;;;;;;;14.43;2.22;;;21.90;99.90;;;;;;5025016;28;20523;-63
2022/02/19 08:48:11;;;;;;;10.63;2.03;;;21.90;99.90;;;;;;5035753;28;20026;-64
2022/02/19 08:50:40;;;;;;;10.32;1.85;;;21.90;99.90;;;;;;5034443;28;20029;-63
2022/02/19 08:53:08;;;;;;;12.25;2.03;;;21.90;99.90;;;;;;5017780;28;20464;-64
2022/02/19 08:55:35;;;;;;;13.98;2.08;;;21.90;99.90;;;;;;5036117;28;20045;-63
2022/02/19 08:58:03;;;;;;;15.75;2.65;;;21.90;99.90;;;;;;5033093;28;20049;-63
2022/02/19 09:00:30;;;;;;;14.68;2.30;;;21.90;99.90;;;;;;5023420;28;20481;-63
2022/02/19 09:02:58;;;;;;;11.40;2.35;;;21.90;99.90;;;;;;5035034;28;20033;-63
2022/02/19 09:05:26;;;;;;;9.75;1.65;;;21.90;99.90;;;;;;5035733;28;20037;-63
2022/02/19 09:07:54;;;;;;;12.07;1.95;;;21.90;99.90;;;;;;5035417;28;20034;-63
2022/02/19 09:10:21;;;;;;;12.70;1.60;;;21.90;99.90;;;;;;5036901;28;20029;-63
2022/02/19 09:12:49;;;;;;;10.85;1.88;;;21.90;99.90;;;;;;5034580;28;20036;-63
2022/02/19 09:15:23;;;;;;;10.68;2.03;;;21.90;99.90;;;;;;5034013;28;20029;-63
2022/02/19 09:17:51;;;;;;;9.50;1.90;;;22.00;99.90;;;;;;5043094;28;20025;-63
2022/02/19 09:20:21;;;;;;;9.77;2.25;;;21.90;99.90;;;;;;5049565;28;20072;-63
2022/02/19 09:22:49;;;;;;;9.77;1.63;;;21.90;99.90;;;;;;5035048;28;20068;-63
2022/02/19 09:25:17;;;;;;;11.02;1.45;;;21.90;99.90;;;;;;5035391;28;20104;-63
2022/02/19 09:27:45;;;;;;;13.82;2.30;;;21.90;99.90;;;;;;5035162;28;20017;-63
2022/02/19 09:30:13;;;;;;;9.55;1.83;;;22.00;99.90;;;;;;5034984;28;20030;-63
2022/02/19 09:32:41;;;;;;;13.40;2.22;;;22.00;99.90;;;;;;5035032;28;20498;-63
2022/02/19 09:35:09;;;;;;;7.80;1.65;;;22.00;99.90;;;;;;5029471;28;20715;-63
2022/02/19 09:37:37;;;;;;;7.03;1.50;;;22.00;99.90;;;;;;5034076;28;20033;-63
2022/02/19 09:40:07;;;;;;;13.02;2.50;;;22.00;99.90;;;;;;5030690;28;20030;-63
2022/02/19 09:42:36;;;;;;;8.48;1.67;;;22.00;99.90;;;;;;5025946;28;20045;-63
2022/02/19 09:45:05;;;;;;;10.43;1.75;;;22.00;99.90;;;;;;5035014;28;20060;-63
2022/02/19 09:47:33;;;;;;;10.43;1.83;;;22.00;99.90;;;;;;5034381;28;20227;-63
2022/02/19 09:50:01;;;;;;;9.52;1.95;;;22.00;99.90;;;;;;5032545;28;20056;-63
2022/02/19 09:52:28;;;;;;;11.75;2.83;;;22.00;99.90;;;;;;5033570;28;20041;-63
2022/02/19 09:55:00;;;;;;;10.38;1.92;;;22.10;99.90;;;;;;5039847;28;20072;-64
2022/02/19 09:57:27;;;;;;;13.27;1.83;;;22.10;99.90;;;;;;5034578;28;20034;-64
2022/02/19 09:59:55;;;;;;;12.30;2.08;;;22.10;99.90;;;;;;5034542;28;20028;-64
2022/02/19 10:02:40;;;;;;;9.90;1.83;;;22.00;99.90;;;;;;5034436;28;20044;-64
2022/02/19 10:05:11;;;;;;;9.23;1.80;;;22.00;99.90;;;;;;5036705;28;20559;-63
2022/02/19 10:07:39;;;;;;;13.18;2.22;;;22.00;99.90;;;;;;5054268;28;20040;-63
2022/02/19 10:10:06;;;;;;;8.70;1.73;;;22.00;99.90;;;;;;5049914;28;20108;-63
2022/02/19 10:12:47;;;;;;;10.88;1.83;;;22.00;99.90;;;;;;5034216;28;20029;-63
2022/02/19 10:15:14;;;;;;;10.75;1.30;;;22.00;99.90;;;;;;5015601;28;20446;-63
2022/02/19 10:17:42;;;;;;;13.55;1.98;;;22.00;99.90;;;;;;5034110;28;20040;-63
2022/02/19 10:20:14;;;;;;;10.88;1.95;;;22.00;99.90;;;;;;5037038;28;20118;-63
2022/02/19 10:22:45;;;;;;;10.35;1.95;;;22.00;99.90;;;;;;5053845;28;20053;-63
2022/02/19 10:25:16;;;;;;;13.98;1.80;;;22.00;99.90;;;;;;5053072;28;20021;-63
2022/02/19 10:27:58;;;;;;;10.88;1.63;;;21.90;99.90;;;;;;5043929;28;20025;-63
2022/02/19 10:30:27;;;;;;;10.50;1.40;;;22.00;99.90;;;;;;5023245;28;20112;-63
2022/02/19 10:33:03;;;;;;;13.38;1.80;;;22.00;99.90;;;;;;5033859;28;20040;-63
2022/02/19 10:35:35;;;;;;;7.72;1.77;;;21.90;99.90;;;;;;5032812;28;20108;-63
2022/02/19 10:38:04;;;;;;;14.32;2.17;;;21.90;99.90;;;;;;5032744;28;20029;-63
2022/02/19 10:40:46;;;;;;;10.45;1.30;;;22.00;99.90;;;;;;5032339;28;20389;-63
2022/02/19 10:43:23;;;;;;;10.65;1.77;;;22.00;99.90;;;;;;5016265;28;20028;-63
2022/02/19 10:45:55;;;;;;;17.90;2.47;;;22.00;99.90;;;;;;5041746;28;20031;-63
2022/02/19 10:48:29;;;;;;;11.38;1.77;;;22.00;99.90;;;;;;5024539;28;20100;-63
2022/02/19 10:51:15;;;;;;;13.82;2.42;;;22.00;99.90;;;;;;5024692;28;20030;-63
2022/02/19 10:53:47;;;;;;;4.43;1.52;;;22.00;99.90;;;;;;5033210;28;20490;-63
2022/02/19 10:56:16;;;;;;;8.63;1.83;;;22.00;99.90;;;;;;5028264;28;20040;-63
2022/02/19 10:59:09;;;;;;;7.47;1.67;;;22.00;99.90;;;;;;5053271;28;20013;-63
2022/02/19 11:01:50;;;;;;;13.75;1.88;;;21.90;99.90;;;;;;5036185;28;20102;-63
2022/02/19 11:04:20;;;;;;;7.88;1.30;;;22.00;99.90;;;;;;5033660;28;20081;-63
2022/02/19 11:06:49;;;;;;;13.30;1.77;;;21.90;99.90;;;;;;5049609;28;20025;-63
2022/02/19 11:09:17;;;;;;;8.93;2.58;;;21.90;99.90;;;;;;5052843;28;20021;-63
2022/02/19 11:11:46;;;;;;;10.60;2.70;;;21.90;99.90;;;;;;5023766;28;20036;-63
2022/02/19 11:14:15;;;;;;;14.43;1.58;;;21.90;99.90;;;;;;5033083;28;20028;-63
2022/02/19 11:16:43;;;;;;;9.77;1.77;;;21.90;99.90;;;;;;5033617;28;20029;-63
2022/02/19 11:19:11;;;;;;;10.40;1.75;;;21.90;99.90;;;;;;5033424;28;20029;-63
2022/02/19 11:21:39;;;;;;;11.00;1.30;;;21.90;99.90;;;;;;5033222;28;20029;-63
2022/02/19 11:24:08;;;;;;;10.05;1.90;;;21.90;99.90;;;;;;5019048;28;20042;-63
2022/02/19 11:26:37;;;;;;;13.02;2.30;;;22.00;99.90;;;;;;5029439;28;20032;-63
2022/02/19 11:29:19;;;;;;;11.63;2.35;;;22.00;99.90;;;;;;5033212;28;20033;-63
2022/02/19 11:31:47;;;;;;;12.55;1.77;;;22.00;99.90;;;;;;5016230;28;20026;-63
2022/02/19 11:34:20;;;;;;;16.80;2.15;;;22.00;99.90;;;;;;5013145;28;20028;-63
2022/02/19 11:36:49;;;;;;;12.38;1.70;;;21.90;99.90;;;;;;5030656;28;20025;-63
2022/02/19 11:39:16;;;;;;;10.93;1.67;;;21.90;99.90;;;;;;5031007;28;20034;-63
2022/02/19 11:41:49;;;;;;;12.00;1.80;;;21.90;99.90;;;;;;5013578;28;20173;-65
2022/02/19 11:44:19;;;;;;;12.73;2.20;;;21.90;99.90;;;;;;5013507;28;20037;-62
2022/02/19 11:46:47;;;;;;;13.57;2.10;;;21.90;99.90;;;;;;5047425;28;20032;-62
2022/02/19 11:49:31;;;;;;;12.00;1.40;;;21.90;99.90;;;;;;5031964;28;20482;-62
2022/02/19 11:52:07;;;;;;;14.32;1.50;;;21.90;99.90;;;;;;5032250;28;20199;-62
2022/02/19 11:54:35;;;;;;;13.90;1.90;;;21.90;99.90;;;;;;5030819;28;20397;-62
2022/02/19 11:57:22;;;;;;;13.82;2.92;;;21.90;99.90;;;;;;5051801;28;20040;-62
2022/02/19 11:59:51;;;;;;;16.23;2.63;;;22.00;99.90;;;;;;5050708;28;20033;-62
2022/02/19 12:02:23;;;;;;;14.32;1.90;;;21.90;99.90;;;;;;5052250;28;20389;-62
2022/02/19 12:05:26;;;;;;;12.63;2.15;;;21.90;99.90;;;;;;5050862;28;20029;-62
2022/02/19 12:07:58;;;;;;;7.75;1.98;;;21.90;99.90;;;;;;5052151;28;20044;-62
2022/02/19 12:10:26;;;;;;;17.13;2.15;;;21.90;99.90;;;;;;5033166;28;20025;-62
2022/02/19 12:13:08;;;;;;;8.57;1.40;;;21.90;99.90;;;;;;5052239;28;20067;-62
2022/02/19 12:15:36;;;;;;;10.57;1.52;;;22.00;99.90;;;;;;5047955;28;20017;-62
2022/02/19 12:18:04;;;;;;;8.57;1.80;;;21.90;99.90;;;;;;5031009;28;20022;-63
2022/02/19 12:20:35;;;;;;;15.98;1.92;;;21.90;99.90;;;;;;5035027;28;20033;-63
2022/02/19 12:23:05;;;;;;;12.88;1.98;;;21.90;99.90;;;;;;5036182;28;20068;-62
2022/02/19 12:25:55;;;;;;;14.32;3.08;;;21.90;99.90;;;;;;5035972;28;20051;-62
2022/02/19 12:28:23;;;;;;;11.25;1.90;;;21.90;99.90;;;;;;5035503;28;20029;-63
2022/02/19 12:31:24;;;;;;;12.65;1.85;;;21.90;99.90;;;;;;5036204;28;20025;-63
2022/02/19 12:33:53;;;;;;;11.77;1.88;;;21.90;99.90;;;;;;5035609;28;20482;-63
2022/02/19 12:36:21;;;;;;;9.38;1.80;;;21.90;99.90;;;;;;5020322;28;20548;-64
2022/02/19 12:38:53;;;;;;;12.50;1.95;;;21.90;99.90;;;;;;5016086;28;20028;-63
2022/02/19 12:41:21;;;;;;;10.93;1.55;;;21.90;99.90;;;;;;5034973;28;20389;-63
2022/02/19 12:44:13;;;;;;;16.70;1.70;;;21.90;99.90;;;;;;5035787;28;20025;-63
2022/02/19 12:46:42;;;;;;;14.70;1.55;;;21.90;99.90;;;;;;5018928;28;20030;-63
2022/02/19 12:49:10;;;;;;;12.70;2.10;;;21.90;99.90;;;;;;5015980;28;20091;-62
2022/02/19 12:51:37;;;;;;;10.75;1.65;;;21.90;99.90;;;;;;5039012;28;20030;-63
2022/02/19 12:54:05;;;;;;;13.27;1.52;;;21.90;99.90;;;;;;5015788;28;20052;-63